Rhonda Lamulle — WDC8441 — position and weather

sailwx.info

Track history (hours):
 
Tides and Currents Weather Stations Pressure Air Temp Water Temp Dewpoint Dewpoint Depression Visibility Wind Speed Wind Dir Waves Ship Positions

Rhonda Lamulle

Owner: Florida Marine Transporters, Inc., Mandeville, LA. More information available from US FCC via Universal Licensing System and Coast Guard Vessel Documentation Center.

Last reported at 2015-Mar-27 22:21 UTC. Time now 2015-Mar-29 12:26 UTC.
Position N 30°23' W 087°00'.

Length 27 m; draft 3 m.

Type: Towing. MMSI: 367087160.

Date/timePositionNaut miles runAvg speedWind from/ knotsBaromVisibWave heightAir tempDewpointWater temp
2015-Mar-27 22:21N 30°23' W 087°00'5 6.3
2015-Mar-27 21:33N 30°23' W 086°55'6 5.7
2015-Mar-27 20:34N 30°24' W 086°48'5 4.9
2015-Mar-27 19:31N 30°24' W 086°42'0 0.0
2015-Mar-27 18:33N 30°24' W 086°42'0 0.0
2015-Mar-27 17:34N 30°24' W 086°42'0 0.0
2015-Mar-27 16:31N 30°24' W 086°42'0 0.0
2015-Mar-27 15:30N 30°24' W 086°42'0 0.0
2015-Mar-27 14:34N 30°24' W 086°42'0 0.0
2015-Mar-27 13:34N 30°24' W 086°42'0 0.0
2015-Mar-27 12:32N 30°24' W 086°42'0 0.0
2015-Mar-27 11:34N 30°24' W 086°42'0 0.0
2015-Mar-27 10:33N 30°24' W 086°42'0 0.0
2015-Mar-27 09:34N 30°24' W 086°42'0 0.0
2015-Mar-27 08:33N 30°24' W 086°42'0 0.0
2015-Mar-27 07:34N 30°24' W 086°42'0 0.0
2015-Mar-27 06:34N 30°24' W 086°42'0 0.0
2015-Mar-27 05:34N 30°24' W 086°42'0 0.0
2015-Mar-27 04:34N 30°24' W 086°42'0 0.0
2015-Mar-27 03:34N 30°24' W 086°42'0 0.0
2015-Mar-27 02:33N 30°24' W 086°42'0 0.0
2015-Mar-27 01:34N 30°24' W 086°42'0 0.0
2015-Mar-27 00:32N 30°24' W 086°42'0 0.0
2015-Mar-26 23:34N 30°24' W 086°42'0 0.0
2015-Mar-26 22:33N 30°24' W 086°42'1 1.1
2015-Mar-26 21:33N 30°24' W 086°41'4 4.3
2015-Mar-26 20:33N 30°24' W 086°36'5 5.4
2015-Mar-26 19:33N 30°26' W 086°30'3 3.3
2015-Mar-26 18:33N 30°29' W 086°29'0 0.3
2015-Mar-26 17:33N 30°29' W 086°29'0 0.0
2015-Mar-26 16:33N 30°29' W 086°29'0 0.0
2015-Mar-26 15:33N 30°29' W 086°29'0 0.0
2015-Mar-26 14:34N 30°29' W 086°29'0 0.0
2015-Mar-26 13:34N 30°29' W 086°29'0 0.0
2015-Mar-26 12:34N 30°29' W 086°29'0 0.1
2015-Mar-26 11:33N 30°29' W 086°29'0 0.0
2015-Mar-26 10:33N 30°29' W 086°29'0 0.0
2015-Mar-26 09:33N 30°29' W 086°29'2 1.3
2015-Mar-26 08:15N 30°28' W 086°28'4 5.7
2015-Mar-26 07:33N 30°26' W 086°24'6 5.7
2015-Mar-26 06:33N 30°26' W 086°17'19 0.4
2015-Mar-24 09:33N 30°24' W 086°40'3 2.4
2015-Mar-24 08:30N 30°24' W 086°43'2 1.9
2015-Mar-24 07:29N 30°24' W 086°45'3 3.1
2015-Mar-24 06:32N 30°24' W 086°48'4 4.6
2015-Mar-24 05:34N 30°24' W 086°54'6 5.4
2015-Mar-24 04:29N 30°23' W 087°00'  
2015-Mar-21 00:32N 30°23' W 086°57'6 6.1
2015-Mar-20 23:33N 30°24' W 086°50'6 5.7
2015-Mar-20 22:31N 30°24' W 086°43'1 1.2
2015-Mar-20 21:33N 30°24' W 086°42'0 0.0
2015-Mar-20 20:24N 30°24' W 086°42'0 0.0
2015-Mar-20 19:32N 30°24' W 086°42'0 0.0
2015-Mar-20 18:33N 30°24' W 086°42'0 0.0
2015-Mar-20 17:33N 30°24' W 086°42'0 0.0
2015-Mar-20 16:33N 30°24' W 086°42'0 0.0
2015-Mar-20 15:33N 30°24' W 086°42'0 0.0
2015-Mar-20 14:33N 30°24' W 086°42'0 0.0
2015-Mar-20 13:33N 30°24' W 086°42'0 0.0
2015-Mar-20 12:29N 30°24' W 086°42'0 0.0
2015-Mar-20 11:33N 30°24' W 086°42'0 0.0
2015-Mar-20 10:33N 30°24' W 086°42'0 0.0
2015-Mar-20 09:33N 30°24' W 086°42'0 0.0
2015-Mar-20 08:33N 30°24' W 086°42'0 0.0
2015-Mar-20 07:32N 30°24' W 086°42'0 0.0
2015-Mar-20 06:33N 30°24' W 086°42'0 0.0
2015-Mar-20 05:32N 30°24' W 086°42'0 0.0
2015-Mar-20 04:33N 30°24' W 086°42'0 0.0
2015-Mar-20 03:33N 30°24' W 086°42'0 0.0
2015-Mar-20 02:29N 30°24' W 086°42'0 0.0
2015-Mar-20 01:31N 30°24' W 086°42'0 0.0
2015-Mar-20 00:33N 30°24' W 086°42'0 0.0
2015-Mar-19 23:33N 30°24' W 086°42'12 4.1
2015-Mar-19 20:33N 30°27' W 086°28'2 1.8
2015-Mar-19 19:33N 30°29' W 086°29'0 0.0
2015-Mar-19 18:33N 30°29' W 086°29'0 0.0
2015-Mar-19 17:33N 30°29' W 086°29'0 0.0
2015-Mar-19 16:33N 30°29' W 086°29'0 0.0
2015-Mar-19 15:33N 30°29' W 086°29'0 0.0
2015-Mar-19 14:33N 30°29' W 086°29'0 0.0
2015-Mar-19 13:33N 30°29' W 086°29'0 0.0
2015-Mar-19 12:33N 30°29' W 086°29'0 0.0
2015-Mar-19 11:33N 30°29' W 086°29'0 0.0
2015-Mar-19 10:33N 30°29' W 086°29'1 0.8
2015-Mar-19 09:34N 30°29' W 086°28'3 2.1
2015-Mar-19 08:15N 30°27' W 086°26'3 3.8
2015-Mar-19 07:34N 30°26' W 086°23'5 4.7
2015-Mar-19 06:33N 30°26' W 086°18'4 4.4
2015-Mar-19 05:33N 30°26' W 086°13'5 4.7
2015-Mar-19 04:33N 30°23' W 086°08'2 0.1
2015-Mar-18 03:05N 30°22' W 086°06'3 4.8
2015-Mar-18 02:31N 30°24' W 086°09'5 4.8
2015-Mar-18 01:33N 30°26' W 086°14'6 5.6
2015-Mar-18 00:33N 30°26' W 086°20'6 5.8
2015-Mar-17 23:33N 30°26' W 086°27'6 6.1
2015-Mar-17 22:33N 30°24' W 086°34'  
Track history (hours):
 
Tides and Currents Weather Stations Pressure Air Temp Water Temp Dewpoint Dewpoint Depression Visibility Wind Speed Wind Dir Waves Ship Positions

Rhonda Lamulle

Owner: Florida Marine Transporters, Inc., Mandeville, LA. More information available from US FCC via Universal Licensing System and Coast Guard Vessel Documentation Center.

Last reported at 2015-Mar-27 22:21 UTC. Time now 2015-Mar-29 12:26 UTC.
Position N 30°23' W 087°00'.

Length 27 m; draft 3 m.

Type: Towing. MMSI: 367087160.

Date/timePositionNaut miles runAvg speedWind from/ knotsBaromVisibWave heightAir tempDewpointWater temp
2015-Mar-27 22:21N 30°23' W 087°00'5 6.3
2015-Mar-27 21:33N 30°23' W 086°55'6 5.7
2015-Mar-27 20:34N 30°24' W 086°48'5 4.9
2015-Mar-27 19:31N 30°24' W 086°42'0 0.0
2015-Mar-27 18:33N 30°24' W 086°42'0 0.0
2015-Mar-27 17:34N 30°24' W 086°42'0 0.0
2015-Mar-27 16:31N 30°24' W 086°42'0 0.0
2015-Mar-27 15:30N 30°24' W 086°42'0 0.0
2015-Mar-27 14:34N 30°24' W 086°42'0 0.0
2015-Mar-27 13:34N 30°24' W 086°42'0 0.0
2015-Mar-27 12:32N 30°24' W 086°42'0 0.0
2015-Mar-27 11:34N 30°24' W 086°42'0 0.0
2015-Mar-27 10:33N 30°24' W 086°42'0 0.0
2015-Mar-27 09:34N 30°24' W 086°42'0 0.0
2015-Mar-27 08:33N 30°24' W 086°42'0 0.0
2015-Mar-27 07:34N 30°24' W 086°42'0 0.0
2015-Mar-27 06:34N 30°24' W 086°42'0 0.0
2015-Mar-27 05:34N 30°24' W 086°42'0 0.0
2015-Mar-27 04:34N 30°24' W 086°42'0 0.0
2015-Mar-27 03:34N 30°24' W 086°42'0 0.0
2015-Mar-27 02:33N 30°24' W 086°42'0 0.0
2015-Mar-27 01:34N 30°24' W 086°42'0 0.0
2015-Mar-27 00:32N 30°24' W 086°42'0 0.0
2015-Mar-26 23:34N 30°24' W 086°42'0 0.0
2015-Mar-26 22:33N 30°24' W 086°42'1 1.1
2015-Mar-26 21:33N 30°24' W 086°41'4 4.3
2015-Mar-26 20:33N 30°24' W 086°36'5 5.4
2015-Mar-26 19:33N 30°26' W 086°30'3 3.3
2015-Mar-26 18:33N 30°29' W 086°29'0 0.3
2015-Mar-26 17:33N 30°29' W 086°29'0 0.0
2015-Mar-26 16:33N 30°29' W 086°29'0 0.0
2015-Mar-26 15:33N 30°29' W 086°29'0 0.0
2015-Mar-26 14:34N 30°29' W 086°29'0 0.0
2015-Mar-26 13:34N 30°29' W 086°29'0 0.0
2015-Mar-26 12:34N 30°29' W 086°29'0 0.1
2015-Mar-26 11:33N 30°29' W 086°29'0 0.0
2015-Mar-26 10:33N 30°29' W 086°29'0 0.0
2015-Mar-26 09:33N 30°29' W 086°29'2 1.3
2015-Mar-26 08:15N 30°28' W 086°28'4 5.7
2015-Mar-26 07:33N 30°26' W 086°24'6 5.7
2015-Mar-26 06:33N 30°26' W 086°17'19 0.4
2015-Mar-24 09:33N 30°24' W 086°40'3 2.4
2015-Mar-24 08:30N 30°24' W 086°43'2 1.9
2015-Mar-24 07:29N 30°24' W 086°45'3 3.1
2015-Mar-24 06:32N 30°24' W 086°48'4 4.6
2015-Mar-24 05:34N 30°24' W 086°54'6 5.4
2015-Mar-24 04:29N 30°23' W 087°00'  
2015-Mar-21 00:32N 30°23' W 086°57'6 6.1
2015-Mar-20 23:33N 30°24' W 086°50'6 5.7
2015-Mar-20 22:31N 30°24' W 086°43'1 1.2
2015-Mar-20 21:33N 30°24' W 086°42'0 0.0
2015-Mar-20 20:24N 30°24' W 086°42'0 0.0
2015-Mar-20 19:32N 30°24' W 086°42'0 0.0
2015-Mar-20 18:33N 30°24' W 086°42'0 0.0
2015-Mar-20 17:33N 30°24' W 086°42'0 0.0
2015-Mar-20 16:33N 30°24' W 086°42'0 0.0
2015-Mar-20 15:33N 30°24' W 086°42'0 0.0
2015-Mar-20 14:33N 30°24' W 086°42'0 0.0
2015-Mar-20 13:33N 30°24' W 086°42'0 0.0
2015-Mar-20 12:29N 30°24' W 086°42'0 0.0
2015-Mar-20 11:33N 30°24' W 086°42'0 0.0
2015-Mar-20 10:33N 30°24' W 086°42'0 0.0
2015-Mar-20 09:33N 30°24' W 086°42'0 0.0
2015-Mar-20 08:33N 30°24' W 086°42'0 0.0
2015-Mar-20 07:32N 30°24' W 086°42'0 0.0
2015-Mar-20 06:33N 30°24' W 086°42'0 0.0
2015-Mar-20 05:32N 30°24' W 086°42'0 0.0
2015-Mar-20 04:33N 30°24' W 086°42'0 0.0
2015-Mar-20 03:33N 30°24' W 086°42'0 0.0
2015-Mar-20 02:29N 30°24' W 086°42'0 0.0
2015-Mar-20 01:31N 30°24' W 086°42'0 0.0
2015-Mar-20 00:33N 30°24' W 086°42'0 0.0
2015-Mar-19 23:33N 30°24' W 086°42'12 4.1
2015-Mar-19 20:33N 30°27' W 086°28'2 1.8
2015-Mar-19 19:33N 30°29' W 086°29'0 0.0
2015-Mar-19 18:33N 30°29' W 086°29'0 0.0
2015-Mar-19 17:33N 30°29' W 086°29'0 0.0
2015-Mar-19 16:33N 30°29' W 086°29'0 0.0
2015-Mar-19 15:33N 30°29' W 086°29'0 0.0
2015-Mar-19 14:33N 30°29' W 086°29'0 0.0
2015-Mar-19 13:33N 30°29' W 086°29'0 0.0
2015-Mar-19 12:33N 30°29' W 086°29'0 0.0
2015-Mar-19 11:33N 30°29' W 086°29'0 0.0
2015-Mar-19 10:33N 30°29' W 086°29'1 0.8
2015-Mar-19 09:34N 30°29' W 086°28'3 2.1
2015-Mar-19 08:15N 30°27' W 086°26'3 3.8
2015-Mar-19 07:34N 30°26' W 086°23'5 4.7
2015-Mar-19 06:33N 30°26' W 086°18'4 4.4
2015-Mar-19 05:33N 30°26' W 086°13'5 4.7
2015-Mar-19 04:33N 30°23' W 086°08'2 0.1
2015-Mar-18 03:05N 30°22' W 086°06'3 4.8
2015-Mar-18 02:31N 30°24' W 086°09'5 4.8
2015-Mar-18 01:33N 30°26' W 086°14'6 5.6
2015-Mar-18 00:33N 30°26' W 086°20'6 5.8
2015-Mar-17 23:33N 30°26' W 086°27'6 6.1
2015-Mar-17 22:33N 30°24' W 086°34'  

Dump ship's entire track history